Time;durP1;ratioP1;P1;durP2;ratioP2;P2;SDS_P1;SDS_P2;PMS_P1;PMS_P2;Temp;Humidity;BMP_temperature;BMP_pressure;BME280_temperature;BME280_humidity;BME280_pressure;Samples;Min_cycle;Max_cycle;Signal;HPM_P1;HPM_P2
2021/05/12 00:00:26;;;;;;;617.17;582.63;;;;;;;15.29;66.99;97574.00;5082578;28;20071;-64
2021/05/12 00:02:52;;;;;;;626.95;591.50;;;;;;;15.32;67.07;97565.25;5081635;28;20071;-64
2021/05/12 00:05:18;;;;;;;610.78;576.88;;;;;;;15.36;67.09;97564.19;5084917;28;20043;-63
2021/05/12 00:07:46;;;;;;;631.65;595.83;;;;;;;15.45;66.37;97561.91;5082340;28;20033;-63
2021/05/12 00:10:12;;;;;;;609.42;575.38;;;;;;;15.50;66.87;97572.84;5084461;28;20071;-64
2021/05/12 00:12:38;;;;;;;603.58;569.67;;;;;;;15.58;65.99;97574.16;5086477;28;20075;-64
2021/05/12 00:15:07;;;;;;;608.28;573.95;;;;;;;15.64;66.08;97577.25;5081694;28;20153;-63
2021/05/12 00:17:34;;;;;;;607.67;573.50;;;;;;;15.65;65.86;97581.50;5081931;28;20085;-63
2021/05/12 00:20:01;;;;;;;626.65;591.20;;;;;;;15.67;65.49;97578.81;5080401;28;20062;-63
2021/05/12 00:22:46;;;;;;;602.85;569.33;;;;;;;15.69;65.37;97577.81;5080251;28;20036;-63
2021/05/12 00:25:12;;;;;;;588.95;556.17;;;;;;;15.72;65.39;97580.22;5085240;28;20032;-63
2021/05/12 00:27:38;;;;;;;584.53;552.08;;;;;;;15.70;66.11;97565.75;5084406;28;20035;-64
2021/05/12 00:30:07;;;;;;;600.25;567.00;;;;;;;15.69;66.52;97564.06;5083089;28;20039;-63
2021/05/12 00:32:32;;;;;;;607.00;572.67;;;;;;;15.70;66.47;97563.97;5083834;28;20032;-64
2021/05/12 00:34:58;;;;;;;607.35;573.22;;;;;;;15.73;65.48;97562.97;5082092;28;20020;-63
2021/05/12 00:37:23;;;;;;;583.33;550.63;;;;;;;15.69;65.67;97564.06;5080166;28;20020;-63
2021/05/12 00:39:48;;;;;;;571.42;539.70;;;;;;;15.67;65.52;97558.97;5085641;28;20255;-63
2021/05/12 00:42:14;;;;;;;596.30;562.95;;;;;;;15.63;65.45;97567.81;5091799;28;20035;-63
2021/05/12 00:44:39;;;;;;;568.42;537.55;;;;;;;15.64;65.75;97558.31;5082802;28;20028;-63
2021/05/12 00:47:05;;;;;;;560.65;529.30;;;;;;;15.62;65.94;97560.16;5082372;28;20027;-63
2021/05/12 00:49:33;;;;;;;584.05;551.90;;;;;;;15.64;65.62;97559.16;5079913;28;20259;-64
2021/05/12 00:51:58;;;;;;;564.10;533.22;;;;;;;15.59;65.94;97545.66;5095806;28;20035;-63
2021/05/12 00:54:24;;;;;;;558.33;526.78;;;;;;;15.63;66.30;97562.66;5081017;28;20016;-63
2021/05/12 00:56:50;;;;;;;569.33;538.25;;;;;;;15.63;66.16;97562.66;5081696;28;20028;-63
2021/05/12 00:59:16;;;;;;;564.13;533.22;;;;;;;15.60;65.71;97569.75;5082425;28;20028;-63
2021/05/12 01:01:41;;;;;;;567.78;536.55;;;;;;;15.57;66.21;97567.34;5080395;28;20032;-64
2021/05/12 01:04:07;;;;;;;558.90;528.38;;;;;;;15.61;66.20;97563.69;5077413;28;20117;-63
2021/05/12 01:06:36;;;;;;;579.75;547.97;;;;;;;15.60;66.66;97568.00;5083206;28;20032;-63
2021/05/12 01:09:02;;;;;;;576.47;544.95;;;;;;;15.57;67.26;97568.19;5083515;28;20088;-64
2021/05/12 01:11:28;;;;;;;576.10;544.25;;;;;;;15.62;66.41;97576.50;5083638;28;20078;-63
2021/05/12 01:13:55;;;;;;;578.67;546.63;;;;;;;15.82;66.53;97578.81;5080561;28;20028;-63
2021/05/12 01:16:20;;;;;;;572.50;541.13;;;;;;;15.88;66.26;97572.44;5082975;28;20104;-64
2021/05/12 01:18:46;;;;;;;572.85;541.33;;;;;;;15.93;66.86;97575.59;5082538;28;20375;-63
2021/05/12 01:21:12;;;;;;;551.33;521.10;;;;;;;16.05;66.35;97579.22;5081285;28;20430;-63
2021/05/12 01:23:43;;;;;;;578.30;546.10;;;;;;;16.10;66.01;97578.03;5078541;28;20075;-63
2021/05/12 01:26:11;;;;;;;540.95;511.73;;;;;;;16.17;66.47;97587.09;5086506;28;20024;-63
2021/05/12 01:28:39;;;;;;;542.67;513.13;;;;;;;16.34;65.88;97580.94;5079059;28;20319;-62
2021/05/12 01:31:06;;;;;;;547.25;517.65;;;;;;;16.55;64.91;97579.66;5084623;28;20111;-65
2021/05/12 01:33:32;;;;;;;551.63;521.50;;;;;;;16.59;65.13;97583.75;5081457;28;20043;-63
2021/05/12 01:35:59;;;;;;;543.63;514.10;;;;;;;16.56;65.41;97585.69;5083658;28;20032;-63
2021/05/12 01:38:26;;;;;;;551.97;522.17;;;;;;;16.44;65.79;97577.72;5081561;28;20028;-64
2021/05/12 01:40:52;;;;;;;580.60;548.70;;;;;;;16.55;65.37;97581.44;5081849;28;20036;-63
2021/05/12 01:43:17;;;;;;;568.45;536.85;;;;;;;16.61;65.74;97579.34;5080315;28;20028;-63
2021/05/12 01:45:43;;;;;;;558.55;528.55;;;;;;;16.63;65.51;97574.94;5079054;28;20036;-63
2021/05/12 01:48:11;;;;;;;551.78;522.05;;;;;;;16.69;65.25;97574.53;5078371;28;20025;-63
2021/05/12 01:50:37;;;;;;;548.45;518.58;;;;;;;16.64;65.45;97565.38;5079344;28;20436;-63
2021/05/12 01:53:03;;;;;;;562.55;531.83;;;;;;;16.55;65.82;97564.13;5079541;28;20563;-63
2021/05/12 01:55:29;;;;;;;557.38;527.15;;;;;;;16.49;66.43;97572.28;5079884;28;20073;-63
2021/05/12 01:57:54;;;;;;;563.83;533.05;;;;;;;16.41;66.58;97571.91;5078970;28;20024;-63
2021/05/12 02:00:29;;;;;;;564.72;533.95;;;;;;;16.39;66.19;97566.81;5080915;28;20387;-63
2021/05/12 02:02:55;;;;;;;557.95;527.88;;;;;;;16.31;66.81;97566.44;5081456;28;20255;-63
2021/05/12 02:05:22;;;;;;;565.63;535.20;;;;;;;16.27;66.99;97559.78;5080237;28;20132;-63
2021/05/12 02:07:51;;;;;;;563.95;533.13;;;;;;;16.33;67.06;97559.44;5081849;28;20130;-63
2021/05/12 02:10:17;;;;;;;564.03;533.30;;;;;;;16.41;67.04;97553.81;5080039;28;20048;-63
2021/05/12 02:12:42;;;;;;;563.20;532.35;;;;;;;16.39;67.14;97555.63;5079339;28;20477;-63
2021/05/12 02:15:11;;;;;;;577.08;545.33;;;;;;;16.38;66.79;97551.38;5076350;28;20035;-63
2021/05/12 02:17:37;;;;;;;566.88;535.47;;;;;;;16.37;66.78;97555.75;5079178;28;20054;-63
2021/05/12 02:20:05;;;;;;;575.60;543.90;;;;;;;16.48;66.41;97557.69;5079012;28;20495;-64
2021/05/12 02:22:31;;;;;;;564.22;533.13;;;;;;;16.54;65.97;97551.31;5083983;28;20111;-63
2021/05/12 02:24:56;;;;;;;574.80;542.65;;;;;;;16.63;65.31;97543.03;5083045;28;20469;-63
2021/05/12 02:27:22;;;;;;;577.65;545.75;;;;;;;16.45;65.40;97548.34;5087968;28;20028;-63
2021/05/12 02:29:47;;;;;;;568.95;537.72;;;;;;;16.13;66.49;97541.66;5082796;28;20035;-63
2021/05/12 02:32:13;;;;;;;583.05;551.17;;;;;;;15.99;67.38;97539.91;5085951;28;20032;-64
2021/05/12 02:34:38;;;;;;;573.38;541.70;;;;;;;16.02;67.04;97532.88;5085691;28;20036;-64
2021/05/12 02:37:04;;;;;;;590.63;557.60;;;;;;;16.10;66.85;97526.31;5084073;28;20032;-64
2021/05/12 02:39:29;;;;;;;603.00;569.10;;;;;;;16.31;66.56;97514.72;5085526;28;20427;-64
2021/05/12 02:41:55;;;;;;;606.22;572.13;;;;;;;16.62;66.22;97512.91;5085187;28;20027;-64
2021/05/12 02:44:21;;;;;;;572.58;540.65;;;;;;;16.74;66.16;97506.97;5082296;28;20384;-64
2021/05/12 02:46:46;;;;;;;583.35;551.25;;;;;;;16.82;65.50;97504.72;5085191;28;20040;-64
2021/05/12 02:49:12;;;;;;;586.38;554.30;;;;;;;16.85;65.51;97507.94;5084808;28;20028;-64
2021/05/12 02:51:37;;;;;;;598.15;564.45;;;;;;;16.89;65.14;97522.38;5084867;28;20285;-63
2021/05/12 02:54:03;;;;;;;606.33;572.25;;;;;;;16.92;65.44;97521.38;5084538;28;20028;-63
2021/05/12 02:56:28;;;;;;;620.17;584.22;;;;;;;16.90;65.11;97526.63;5081460;28;20028;-63
2021/05/12 02:58:54;;;;;;;591.00;557.90;;;;;;;16.87;65.60;97520.81;5085252;28;20289;-63
2021/05/12 03:01:19;;;;;;;603.65;569.45;;;;;;;16.84;65.47;97539.97;5082746;28;20029;-63
2021/05/12 03:03:45;;;;;;;628.33;593.38;;;;;;;16.86;65.14;97527.75;5083600;28;20277;-63
2021/05/12 03:06:10;;;;;;;654.97;616.80;;;;;;;16.82;65.43;97540.97;5083310;28;20048;-63
2021/05/12 03:08:36;;;;;;;657.05;619.60;;;;;;;16.83;65.62;97543.47;5084541;28;20117;-63
2021/05/12 03:11:02;;;;;;;647.78;610.03;;;;;;;16.85;65.74;97564.06;5086331;28;20035;-63
2021/05/12 03:13:28;;;;;;;659.28;620.80;;;;;;;16.83;65.74;97547.81;5080110;28;20041;-63
2021/05/12 03:15:53;;;;;;;635.65;598.78;;;;;;;16.79;66.20;97547.19;5083232;28;20029;-63
2021/05/12 03:18:19;;;;;;;622.97;587.60;;;;;;;16.78;66.11;97539.50;5091625;28;20036;-63
2021/05/12 03:20:44;;;;;;;659.90;621.30;;;;;;;16.78;66.05;97552.44;5085090;28;20078;-63
2021/05/12 03:23:10;;;;;;;631.92;596.35;;;;;;;16.73;66.39;97541.53;5085536;28;20278;-64
2021/05/12 03:25:35;;;;;;;624.38;588.83;;;;;;;16.76;66.48;97560.28;5086307;28;20028;-64
2021/05/12 03:28:01;;;;;;;636.22;599.42;;;;;;;16.55;67.24;97540.03;5079497;28;20059;-63
2021/05/12 03:30:30;;;;;;;620.55;584.70;;;;;;;16.60;67.30;97546.63;5082136;28;20027;-64
2021/05/12 03:32:58;;;;;;;624.70;588.75;;;;;;;16.57;67.73;97543.34;5083714;28;20054;-62
2021/05/12 03:35:24;;;;;;;649.53;611.22;;;;;;;16.56;67.41;97557.22;5083390;28;20020;-62
2021/05/12 03:37:50;;;;;;;659.97;621.30;;;;;;;16.50;67.74;97549.84;5081749;28;20031;-62
2021/05/12 03:40:16;;;;;;;647.42;609.00;;;;;;;16.62;68.15;97568.06;5084810;28;20021;-62
2021/05/12 03:42:42;;;;;;;653.15;614.05;;;;;;;16.56;68.07;97573.56;5082415;28;20024;-62
2021/05/12 03:45:09;;;;;;;638.58;601.28;;;;;;;16.63;67.35;97574.09;5084896;28;20035;-63
2021/05/12 03:47:34;;;;;;;638.35;600.35;;;;;;;16.65;67.26;97569.63;5082275;28;20052;-64
2021/05/12 03:50:00;;;;;;;675.88;635.50;;;;;;;16.66;67.61;97573.91;5084053;28;20420;-64
2021/05/12 03:52:25;;;;;;;625.40;588.83;;;;;;;16.78;66.76;97578.31;5082196;28;20051;-64
2021/05/12 03:54:50;;;;;;;646.55;609.00;;;;;;;16.89;66.40;97583.66;5083886;28;20102;-63
2021/05/12 03:57:17;;;;;;;650.90;612.45;;;;;;;16.95;66.42;97582.47;5085033;28;20028;-63
2021/05/12 03:59:43;;;;;;;648.67;611.30;;;;;;;16.92;66.66;97590.44;5079187;28;20036;-63
2021/05/12 04:02:08;;;;;;;635.47;599.53;;;;;;;16.94;66.55;97592.00;5085061;28;20407;-63
2021/05/12 04:04:34;;;;;;;626.50;590.42;;;;;;;16.90;66.21;97591.34;5082845;28;20365;-63
2021/05/12 04:06:59;;;;;;;628.17;591.53;;;;;;;16.96;66.19;97594.50;5082968;28;20024;-63
2021/05/12 04:09:25;;;;;;;612.85;578.10;;;;;;;16.99;65.98;97592.56;5082383;28;20041;-65
2021/05/12 04:11:50;;;;;;;621.45;585.63;;;;;;;16.94;66.40;97593.75;5084012;28;20020;-65
2021/05/12 04:14:15;;;;;;;619.70;583.75;;;;;;;16.92;66.59;97601.63;5082346;28;20039;-65
2021/05/12 04:16:41;;;;;;;604.45;569.63;;;;;;;17.02;66.52;97609.66;5083245;28;20020;-64
2021/05/12 04:19:06;;;;;;;624.88;589.20;;;;;;;17.01;66.31;97614.03;5084691;28;20025;-64
2021/05/12 04:21:32;;;;;;;637.67;600.75;;;;;;;17.07;66.64;97623.16;5080755;28;20067;-63
2021/05/12 04:23:58;;;;;;;644.67;607.78;;;;;;;17.00;66.42;97638.25;5082737;28;20020;-64
2021/05/12 04:26:23;;;;;;;647.05;609.08;;;;;;;17.08;66.45;97638.59;5081271;28;20039;-64
2021/05/12 04:28:49;;;;;;;637.78;599.97;;;;;;;16.92;66.81;97660.34;5081023;28;20330;-66
2021/05/12 04:31:14;;;;;;;654.13;616.35;;;;;;;16.94;66.91;97666.25;5083382;28;20364;-63
2021/05/12 04:33:40;;;;;;;623.55;587.95;;;;;;;16.88;67.10;97670.91;5081182;28;20024;-64
2021/05/12 04:36:06;;;;;;;621.13;586.08;;;;;;;16.87;65.64;97673.56;5081917;28;20332;-65
2021/05/12 04:38:32;;;;;;;619.90;583.97;;;;;;;16.71;66.70;97678.81;5081672;28;20036;-64
2021/05/12 04:40:59;;;;;;;612.53;577.53;;;;;;;16.52;67.69;97690.28;5087734;28;20309;-64
2021/05/12 04:43:25;;;;;;;612.97;577.80;;;;;;;16.32;67.14;97697.44;5086979;28;20032;-64
2021/05/12 04:45:50;;;;;;;622.28;584.80;;;;;;;16.12;66.95;97692.56;5083095;28;20024;-65
2021/05/12 04:48:16;;;;;;;628.55;592.25;;;;;;;15.82;67.92;97676.19;5082234;28;20377;-64
2021/05/12 04:50:41;;;;;;;610.78;576.20;;;;;;;15.61;68.84;97620.53;5090314;28;20281;-64
2021/05/12 04:53:07;;;;;;;613.17;578.03;;;;;;;15.34;68.11;97587.50;5080817;28;20262;-64
2021/05/12 04:55:32;;;;;;;609.47;573.80;;;;;;;15.22;69.06;97580.41;5080575;28;20024;-64
2021/05/12 04:57:59;;;;;;;597.45;562.45;;;;;;;15.09;69.11;97577.66;5083990;28;20035;-64
2021/05/12 05:00:25;;;;;;;590.60;555.70;;;;;;;14.92;70.40;97571.75;5081754;28;20080;-61
2021/05/12 05:02:50;;;;;;;602.45;566.42;;;;;;;14.80;70.81;97575.81;5093479;28;20028;-64
2021/05/12 05:05:17;;;;;;;590.42;554.75;;;;;;;14.73;70.52;97584.75;5080391;28;20668;-64
2021/05/12 05:07:44;;;;;;;593.92;557.40;;;;;;;14.70;70.34;97581.53;5081937;28;20053;-64
2021/05/12 05:10:10;;;;;;;593.95;557.42;;;;;;;14.63;70.25;97550.06;5081246;28;20064;-63
2021/05/12 05:12:36;;;;;;;586.97;551.05;;;;;;;14.52;70.51;97566.09;5084978;28;20036;-64
2021/05/12 05:15:02;;;;;;;559.67;523.88;;;;;;;14.57;70.83;97577.00;5080687;28;20471;-64
2021/05/12 05:17:29;;;;;;;580.20;544.33;;;;;;;14.69;70.38;97595.31;5079594;28;20317;-64
2021/05/12 05:19:57;;;;;;;559.05;525.05;;;;;;;14.73;69.65;97613.16;5081415;28;20024;-65
2021/05/12 05:22:24;;;;;;;539.08;506.92;;;;;;;14.73;69.50;97627.78;5086644;28;20326;-64
2021/05/12 05:24:50;;;;;;;543.78;511.05;;;;;;;14.78;69.25;97647.28;5079501;28;20338;-64
2021/05/12 05:27:15;;;;;;;552.25;519.33;;;;;;;14.90;69.44;97649.22;5078408;28;20063;-65
2021/05/12 05:29:41;;;;;;;583.50;548.28;;;;;;;14.93;69.77;97659.41;5083776;28;20408;-63
2021/05/12 05:32:06;;;;;;;566.10;531.70;;;;;;;14.95;69.90;97664.47;5081060;28;20032;-63
2021/05/12 05:34:32;;;;;;;581.63;546.20;;;;;;;14.96;69.33;97677.31;5080118;28;20052;-64
2021/05/12 05:36:57;;;;;;;561.78;528.30;;;;;;;14.94;70.23;97709.25;5080204;28;20039;-64
2021/05/12 05:39:23;;;;;;;588.03;552.85;;;;;;;14.95;71.62;97718.69;5080943;28;20028;-64
2021/05/12 05:41:53;;;;;;;602.22;566.38;;;;;;;14.99;73.12;97746.00;5079858;28;20059;-64
2021/05/12 05:44:19;;;;;;;589.55;554.17;;;;;;;14.92;73.44;97760.16;5077800;28;20046;-64
2021/05/12 05:46:44;;;;;;;560.72;527.72;;;;;;;14.88;75.59;97759.47;5080954;28;20119;-64
2021/05/12 05:49:10;;;;;;;571.22;538.13;;;;;;;14.80;77.05;97717.75;5096175;28;20329;-64
2021/05/12 05:51:35;;;;;;;579.00;545.15;;;;;;;14.51;77.76;97671.94;5082198;28;20043;-64
2021/05/12 05:54:00;;;;;;;559.25;525.78;;;;;;;14.19;78.11;97660.59;5083566;28;20738;-64
2021/05/12 05:56:26;;;;;;;562.65;529.00;;;;;;;14.04;81.00;97657.03;5085990;28;20025;-64
2021/05/12 05:58:52;;;;;;;543.65;511.85;;;;;;;13.86;81.05;97654.47;5084592;28;20032;-64
2021/05/12 06:01:17;;;;;;;535.60;503.45;;;;;;;13.67;82.86;97663.06;5088572;28;20419;-65
2021/05/12 06:03:42;;;;;;;523.22;491.73;;;;;;;13.55;82.66;97663.66;5090060;28;20053;-63
2021/05/12 06:06:08;;;;;;;522.60;490.95;;;;;;;13.64;82.86;97652.91;5086217;28;20032;-62
2021/05/12 06:08:33;;;;;;;517.00;485.45;;;;;;;13.58;83.35;97654.94;5084311;28;20059;-63
2021/05/12 06:10:59;;;;;;;518.35;486.52;;;;;;;13.60;82.89;97630.78;5083590;28;20027;-62
2021/05/12 06:13:24;;;;;;;503.55;473.13;;;;;;;13.59;81.62;97626.53;5085204;28;20306;-63
2021/05/12 06:15:49;;;;;;;500.45;469.98;;;;;;;13.65;81.40;97641.72;5085321;28;20040;-62
2021/05/12 06:18:15;;;;;;;499.05;468.45;;;;;;;13.66;81.53;97647.72;5101313;28;20124;-64
2021/05/12 06:20:40;;;;;;;507.92;476.90;;;;;;;13.70;81.58;97633.78;5088534;28;20027;-61
2021/05/12 06:23:07;;;;;;;496.30;465.50;;;;;;;13.64;82.02;97631.47;5089539;28;20016;-61
2021/05/12 06:25:32;;;;;;;499.42;468.92;;;;;;;13.64;80.92;97616.03;5089329;28;20537;-63
2021/05/12 06:27:58;;;;;;;507.33;476.13;;;;;;;13.83;80.42;97623.72;5088653;28;20437;-63
2021/05/12 06:30:24;;;;;;;491.23;460.90;;;;;;;13.86;80.28;97626.97;5094854;28;20484;-63
2021/05/12 06:32:54;;;;;;;503.05;471.60;;;;;;;13.64;80.26;97627.16;5090646;28;20081;-63
2021/05/12 06:35:19;;;;;;;501.30;469.83;;;;;;;13.48;80.88;97631.38;5091533;28;20028;-61
2021/05/12 06:37:46;;;;;;;495.80;464.52;;;;;;;13.44;81.08;97655.59;5088321;28;20032;-62
2021/05/12 06:40:17;;;;;;;495.80;464.25;;;;;;;13.49;80.58;97669.09;5091180;28;20588;-61
2021/05/12 06:42:44;;;;;;;498.20;466.30;;;;;;;13.47;80.08;97686.34;5108846;28;20585;-62
2021/05/12 06:45:13;;;;;;;512.33;480.00;;;;;;;13.52;79.94;97702.44;5091174;28;20050;-63
2021/05/12 06:47:42;;;;;;;507.95;475.25;;;;;;;13.45;80.98;97713.06;5095560;28;20035;-62
2021/05/12 06:50:08;;;;;;;502.88;471.13;;;;;;;13.42;81.54;97723.50;5087339;28;20020;-62
2021/05/12 06:52:34;;;;;;;494.52;461.70;;;;;;;13.34;82.07;97725.56;5087345;28;20085;-61
2021/05/12 06:55:00;;;;;;;494.38;463.17;;;;;;;13.24;83.37;97733.69;5090147;28;20024;-61
2021/05/12 06:57:26;;;;;;;492.63;460.88;;;;;;;13.15;83.36;97739.25;5089020;28;20033;-62
2021/05/12 06:59:52;;;;;;;508.60;476.20;;;;;;;13.10;85.74;97758.34;5087658;28;20068;-62
2021/05/12 07:02:18;;;;;;;514.20;479.85;;;;;;;13.07;86.47;97759.31;5088697;28;20180;-62
2021/05/12 07:04:44;;;;;;;505.50;473.17;;;;;;;13.09;85.97;97748.94;5098600;28;20110;-62
2021/05/12 07:07:09;;;;;;;486.20;454.27;;;;;;;13.16;85.65;97748.66;5092942;28;20029;-61
2021/05/12 07:09:35;;;;;;;503.60;470.38;;;;;;;13.23;85.11;97739.78;5090173;28;20048;-61
2021/05/12 07:12:01;;;;;;;508.15;475.83;;;;;;;13.22;85.06;97726.97;5091266;28;20032;-61
2021/05/12 07:14:26;;;;;;;504.58;472.77;;;;;;;13.21;86.26;97726.13;5091978;28;20412;-61
2021/05/12 07:16:53;;;;;;;497.20;465.00;;;;;;;13.22;86.16;97727.81;5086772;28;20027;-61
2021/05/12 07:19:19;;;;;;;492.40;460.42;;;;;;;13.30;85.73;97721.47;5089869;28;20060;-61
2021/05/12 07:21:46;;;;;;;491.33;459.98;;;;;;;13.30;86.22;97724.03;5092088;28;20031;-62
2021/05/12 07:24:12;;;;;;;508.98;476.70;;;;;;;13.33;86.42;97722.16;5089322;28;20109;-61
2021/05/12 07:26:38;;;;;;;502.50;469.45;;;;;;;13.33;85.28;97714.44;5093488;28;20052;-62
2021/05/12 07:29:03;;;;;;;498.60;466.83;;;;;;;13.23;85.01;97703.75;5088138;28;20043;-61
2021/05/12 07:31:29;;;;;;;494.73;462.17;;;;;;;13.22;85.67;97711.53;5106419;28;20041;-62
2021/05/12 07:33:55;;;;;;;507.77;474.25;;;;;;;13.16;85.60;97710.03;5090258;28;20028;-61
2021/05/12 07:36:21;;;;;;;487.45;456.13;;;;;;;13.22;85.70;97727.81;5085479;28;20619;-61
2021/05/12 07:38:46;;;;;;;495.73;463.13;;;;;;;13.18;85.96;97739.13;5084119;28;20093;-61
2021/05/12 07:41:12;;;;;;;507.87;475.30;;;;;;;13.16;85.00;97771.81;5090288;28;20043;-61
2021/05/12 07:43:38;;;;;;;511.67;478.45;;;;;;;13.14;87.45;97785.66;5083484;28;20032;-61
2021/05/12 07:46:03;;;;;;;502.08;469.30;;;;;;;13.17;86.07;97799.22;5083362;28;20027;-61
2021/05/12 07:48:29;;;;;;;495.80;463.70;;;;;;;13.08;86.21;97815.03;5083494;28;20055;-61
2021/05/12 07:50:54;;;;;;;504.05;472.20;;;;;;;13.15;85.14;97815.66;5081748;28;20456;-61
2021/05/12 07:53:21;;;;;;;497.40;465.70;;;;;;;13.06;84.81;97803.97;5084182;28;20107;-61
2021/05/12 07:55:47;;;;;;;474.38;443.25;;;;;;;12.92;86.01;97811.41;5083545;28;20425;-61
2021/05/12 07:58:12;;;;;;;495.47;463.17;;;;;;;12.80;86.56;97804.22;5082104;28;20130;-61
2021/05/12 08:00:40;;;;;;;487.17;455.57;;;;;;;12.79;86.86;97794.81;5081806;28;20033;-61
2021/05/12 08:03:06;;;;;;;483.90;452.13;;;;;;;12.75;88.00;97794.13;5083230;28;20186;-61
2021/05/12 08:05:32;;;;;;;501.90;469.37;;;;;;;12.69;88.73;97794.34;5098290;28;20496;-60
2021/05/12 08:07:58;;;;;;;508.85;474.92;;;;;;;12.68;88.46;97792.69;5081521;28;20321;-60
2021/05/12 08:10:23;;;;;;;480.50;446.87;;;;;;;12.66;89.17;97794.47;5084195;28;20039;-61
2021/05/12 08:12:49;;;;;;;493.53;461.20;;;;;;;12.58;89.20;97793.97;5083409;28;20047;-60
2021/05/12 08:15:14;;;;;;;481.17;448.07;;;;;;;12.42;87.16;97800.63;5082198;28;20032;-60
2021/05/12 08:17:40;;;;;;;465.43;432.00;;;;;;;12.53;87.52;97793.31;5080279;28;20039;-62
2021/05/12 08:20:07;;;;;;;452.40;420.87;;;;;;;12.41;87.04;97786.09;5081769;28;20372;-61
2021/05/12 08:22:32;;;;;;;454.90;422.40;;;;;;;12.49;89.25;97776.31;5078793;28;20031;-61
2021/05/12 08:24:58;;;;;;;459.30;427.57;;;;;;;12.40;87.82;97766.41;5081010;28;20036;-61
2021/05/12 08:27:23;;;;;;;462.00;429.03;;;;;;;12.47;88.57;97739.56;5082140;28;20032;-61
2021/05/12 08:29:49;;;;;;;537.97;501.53;;;;;;;12.29;87.28;97724.88;5080310;28;20317;-62
2021/05/12 08:32:17;;;;;;;470.30;435.53;;;;;;;12.29;87.85;97714.63;5080823;28;20184;-61
2021/05/12 08:34:43;;;;;;;464.63;430.60;;;;;;;12.23;88.39;97719.97;5083416;28;20031;-62
2021/05/12 08:37:09;;;;;;;458.57;423.57;;;;;;;12.15;88.47;97707.44;5082263;28;20327;-60
2021/05/12 08:39:35;;;;;;;464.43;430.50;;;;;;;12.15;88.37;97714.31;5079965;28;20296;-61
2021/05/12 08:42:01;;;;;;;448.73;415.00;;;;;;;12.22;88.52;97718.34;5081237;28;20036;-61
2021/05/12 08:44:27;;;;;;;458.47;423.93;;;;;;;12.27;87.99;97714.66;5081873;28;20075;-62
2021/05/12 08:46:53;;;;;;;458.10;423.73;;;;;;;12.31;86.94;97718.78;5087522;28;20063;-62
2021/05/12 08:49:20;;;;;;;443.00;407.77;;;;;;;12.40;85.96;97709.00;5082785;28;20028;-62
2021/05/12 08:51:46;;;;;;;464.97;427.07;;;;;;;12.53;85.35;97721.31;5084595;28;20024;-62
2021/05/12 08:54:13;;;;;;;486.67;448.27;;;;;;;12.59;84.73;97723.66;5087008;28;20037;-62
2021/05/12 08:56:38;;;;;;;468.17;429.83;;;;;;;12.59;84.11;97731.34;5083593;28;20037;-62
2021/05/12 08:59:04;;;;;;;466.13;429.30;;;;;;;12.86;85.42;97728.53;5083196;28;20039;-62
2021/05/12 09:01:32;;;;;;;482.90;447.10;;;;;;;13.05;84.55;97725.09;5083583;28;20028;-62
2021/05/12 09:04:00;;;;;;;493.80;453.47;;;;;;;13.01;82.60;97717.56;5083883;28;20062;-62
2021/05/12 09:06:25;;;;;;;495.23;456.23;;;;;;;13.03;80.94;97719.16;5082835;28;20035;-62
2021/05/12 09:08:51;;;;;;;513.70;474.07;;;;;;;13.39;80.08;97703.88;5083810;28;20086;-62
2021/05/12 09:11:16;;;;;;;519.47;480.83;;;;;;;13.49;79.00;97707.72;5082347;28;20085;-62
2021/05/12 09:13:47;;;;;;;514.23;476.13;;;;;;;13.58;78.50;97716.75;5081927;28;20028;-62
2021/05/12 09:16:27;;;;;;;520.43;481.90;;;;;;;13.74;77.17;97720.31;5080068;28;20378;-62
2021/05/12 09:19:10;;;;;;;528.47;489.98;;;;;;;13.79;77.53;97712.38;5080872;28;20119;-62
2021/05/12 09:21:48;;;;;;;509.50;472.58;;;;;;;14.16;76.48;97714.88;5080351;28;20025;-62
2021/05/12 09:24:34;;;;;;;531.90;493.55;;;;;;;14.25;75.13;97717.00;5081513;28;20381;-62
2021/05/12 09:27:23;;;;;;;533.08;494.52;;;;;;;14.46;76.24;97728.91;5080922;28;20051;-62
2021/05/12 09:30:03;;;;;;;532.53;494.33;;;;;;;14.67;75.94;97713.25;5084325;28;20352;-62
2021/05/12 09:32:42;;;;;;;559.45;520.42;;;;;;;14.74;73.13;97720.63;5080328;28;20081;-62
2021/05/12 09:35:09;;;;;;;570.47;531.13;;;;;;;14.62;71.68;97722.06;5079225;28;20064;-62
2021/05/12 09:37:40;;;;;;;555.17;515.97;;;;;;;14.95;72.93;97736.75;5081289;28;20070;-62
2021/05/12 09:40:07;;;;;;;581.50;542.15;;;;;;;15.14;71.03;97741.81;5084595;28;20028;-61
2021/05/12 09:42:35;;;;;;;582.08;541.22;;;;;;;15.26;69.80;97739.44;5083070;28;20424;-61
2021/05/12 09:45:23;;;;;;;579.30;539.05;;;;;;;15.18;67.45;97741.59;5085641;28;20120;-61
2021/05/12 09:47:53;;;;;;;603.30;561.95;;;;;;;15.47;67.65;97758.16;5079972;28;20423;-61
2021/05/12 09:50:21;;;;;;;606.03;564.67;;;;;;;15.83;67.03;97761.38;5080262;28;20126;-61
2021/05/12 09:52:51;;;;;;;623.47;581.88;;;;;;;16.04;65.86;97768.91;5084596;28;20373;-62
2021/05/12 09:55:17;;;;;;;647.17;604.28;;;;;;;15.65;64.65;97770.13;5082523;28;20028;-62
2021/05/12 09:58:03;;;;;;;632.55;591.13;;;;;;;16.00;65.49;97779.41;5081189;28;20032;-62
2021/05/12 10:00:31;;;;;;;639.92;599.35;;;;;;;15.87;64.55;97780.97;5079881;28;20043;-61
2021/05/12 10:02:57;;;;;;;646.70;605.85;;;;;;;15.83;65.37;97792.41;5082115;28;20047;-62
2021/05/12 10:05:24;;;;;;;626.28;586.92;;;;;;;15.90;65.01;97790.34;5082809;28;20040;-61
2021/05/12 10:07:51;;;;;;;630.75;591.28;;;;;;;16.11;65.30;97793.50;5071405;28;20028;-62
2021/05/12 10:10:40;;;;;;;632.67;592.92;;;;;;;16.14;65.12;97793.31;5078834;28;20135;-62
2021/05/12 10:13:06;;;;;;;654.38;613.30;;;;;;;16.23;64.63;97796.25;5081658;28;20060;-62
2021/05/12 10:15:32;;;;;;;670.10;627.38;;;;;;;16.25;64.48;97794.41;5085183;28;20033;-62
2021/05/12 10:17:58;;;;;;;672.05;629.33;;;;;;;16.48;64.11;97784.53;5081162;28;20350;-62
2021/05/12 10:20:24;;;;;;;678.00;635.13;;;;;;;16.31;64.55;97796.66;5083235;28;20123;-60
2021/05/12 10:22:52;;;;;;;673.10;630.85;;;;;;;16.10;65.58;97791.81;5081442;28;20040;-62
2021/05/12 10:25:17;;;;;;;677.17;634.28;;;;;;;15.92;65.28;97789.31;5091409;28;20028;-60
2021/05/12 10:27:43;;;;;;;678.92;635.38;;;;;;;16.12;64.82;97784.84;5080329;28;20405;-60
2021/05/12 10:30:10;;;;;;;666.38;624.25;;;;;;;15.95;64.91;97768.47;5083602;28;20157;-62
2021/05/12 10:32:44;;;;;;;665.47;623.22;;;;;;;15.61;65.69;97755.72;5082057;28;20032;-60
2021/05/12 10:35:15;;;;;;;677.13;634.00;;;;;;;15.56;66.44;97762.88;5085231;28;20378;-61
2021/05/12 10:37:47;;;;;;;651.83;609.45;;;;;;;15.36;66.58;97761.28;5082850;28;20051;-61
2021/05/12 10:40:27;;;;;;;672.45;629.20;;;;;;;15.54;67.32;97765.53;5083980;28;20111;-60
2021/05/12 10:45:50;;;;;;;623.38;581.35;;;;;;;15.81;66.47;97773.56;5087612;28;20282;-61
2021/05/12 10:48:34;;;;;;;616.30;574.22;;;;;;;16.02;65.41;97763.81;5084434;28;20037;-62
2021/05/12 10:51:02;;;;;;;634.40;591.42;;;;;;;16.02;65.80;97771.56;5087357;28;20059;-60
2021/05/12 10:53:32;;;;;;;642.72;599.67;;;;;;;16.33;65.08;97766.38;5088245;28;20032;-61
2021/05/12 10:55:58;;;;;;;653.92;609.83;;;;;;;16.40;62.58;97765.09;5086944;28;20031;-61
2021/05/12 10:58:25;;;;;;;658.95;614.72;;;;;;;16.58;62.83;97759.84;5084350;28;20028;-61
2021/05/12 11:01:05;;;;;;;654.83;610.60;;;;;;;16.63;62.22;97768.19;5085068;28;20073;-61
2021/05/12 11:03:54;;;;;;;644.67;601.00;;;;;;;16.27;63.92;97779.66;5083004;28;20071;-62